Time;durP1;ratioP1;P1;durP2;ratioP2;P2;SDS_P1;SDS_P2;PMS_P1;PMS_P2;Temp;Humidity;BMP_temperature;BMP_pressure;BME280_temperature;BME280_humidity;BME280_pressure;Samples;Min_cycle;Max_cycle;Signal;HPM_P1;HPM_P2
2022/09/22 00:01:40;;;;;;;6.75;4.38;;;;;;;28.28;24.55;98650.56;5066017;28;20032;-78
2022/09/22 00:04:11;;;;;;;6.65;4.68;;;;;;;27.88;24.67;98656.53;5064072;28;20037;-78
2022/09/22 00:06:46;;;;;;;4.97;4.00;;;;;;;28.17;24.47;98661.38;5072023;28;20035;-78
2022/09/22 00:09:16;;;;;;;7.10;4.68;;;;;;;28.52;23.74;98660.31;5069131;28;20123;-78
2022/09/22 00:11:44;;;;;;;6.22;4.10;;;;;;;28.45;23.83;98654.88;5070992;28;20089;-77
2022/09/22 00:14:12;;;;;;;6.63;4.22;;;;;;;28.46;24.08;98662.91;5066078;28;20033;-77
2022/09/22 00:16:41;;;;;;;5.50;4.03;;;;;;;28.69;23.34;98658.97;5064971;28;20029;-78
2022/09/22 00:19:09;;;;;;;6.78;4.60;;;;;;;28.89;23.24;98653.13;5061063;28;20059;-77
2022/09/22 00:21:36;;;;;;;5.43;3.95;;;;;;;29.12;23.14;98662.03;5061562;28;20017;-78
2022/09/22 00:24:03;;;;;;;5.80;4.13;;;;;;;28.68;23.20;98663.06;5070773;28;20036;-78
2022/09/22 00:26:30;;;;;;;4.60;4.05;;;;;;;27.72;24.63;98667.06;5071405;28;20134;-78
2022/09/22 00:28:56;;;;;;;5.05;3.63;;;;;;;27.74;24.60;98658.94;5071112;28;20028;-77
2022/09/22 00:31:24;;;;;;;4.40;3.40;;;;;;;27.35;25.39;98662.78;5067893;28;20040;-77
2022/09/22 00:33:52;;;;;;;4.57;3.42;;;;;;;27.00;26.04;98663.69;5070215;28;20036;-77
2022/09/22 00:36:20;;;;;;;7.97;4.40;;;;;;;26.88;26.09;98667.19;5071125;28;20040;-78
2022/09/22 00:38:50;;;;;;;8.25;5.55;;;;;;;27.42;25.01;98654.19;5065064;28;20020;-78
2022/09/22 00:41:19;;;;;;;7.95;5.80;;;;;;;27.18;25.60;98664.84;5069691;28;20060;-77
2022/09/22 00:44:10;;;;;;;8.85;5.10;;;;;;;27.06;25.62;98657.06;5071681;28;20032;-78
2022/09/22 00:46:38;;;;;;;8.70;4.63;;;;;;;27.21;25.25;98663.94;5056311;28;20045;-77
2022/09/22 00:49:07;;;;;;;7.05;5.00;;;;;;;27.55;24.70;98663.50;5068217;28;20526;-77
2022/09/22 00:51:39;;;;;;;7.20;5.47;;;;;;;27.81;24.26;98662.38;5060296;28;20072;-77
2022/09/22 00:54:10;;;;;;;6.95;4.13;;;;;;;28.03;23.98;98662.56;5061849;28;20425;-77
2022/09/22 00:56:53;;;;;;;7.00;4.57;;;;;;;27.91;24.17;98660.50;5061609;28;20025;-77
2022/09/22 00:59:23;;;;;;;6.90;4.65;;;;;;;28.10;24.00;98658.78;5065331;28;20064;-77
2022/09/22 01:01:50;;;;;;;5.47;4.80;;;;;;;28.18;23.69;98660.94;5061420;28;20029;-77
2022/09/22 01:04:17;;;;;;;5.70;3.75;;;;;;;28.28;24.10;98668.31;5064754;28;20723;-77
2022/09/22 01:06:44;;;;;;;5.32;4.50;;;;;;;28.45;23.64;98666.19;5066632;28;20506;-77
2022/09/22 01:09:11;;;;;;;7.28;4.63;;;;;;;28.49;23.56;98670.50;5060577;28;20111;-77
2022/09/22 01:11:38;;;;;;;8.82;4.32;;;;;;;28.53;23.51;98667.53;5065418;28;20028;-77
2022/09/22 01:14:29;;;;;;;6.30;4.00;;;;;;;28.58;23.42;98661.34;5065279;28;20041;-78
2022/09/22 01:16:55;;;;;;;5.53;4.50;;;;;;;28.80;23.33;98661.50;5067680;28;20040;-77
2022/09/22 01:19:52;;;;;;;5.10;4.13;;;;;;;28.52;23.53;98668.78;5068960;28;20036;-77
2022/09/22 01:22:52;;;;;;;7.18;5.07;;;;;;;28.16;24.23;98669.06;5067162;28;20031;-78
2022/09/22 01:26:01;;;;;;;7.20;5.47;;;;;;;27.40;25.10;98662.25;5067064;28;20035;-78
2022/09/22 01:29:01;;;;;;;8.70;5.72;;;;;;;26.60;26.33;98658.16;5062181;28;20077;-77
2022/09/22 01:31:44;;;;;;;9.13;6.22;;;;;;;27.05;25.92;98665.97;5067223;28;20116;-78
2022/09/22 01:34:28;;;;;;;7.95;5.43;;;;;;;27.08;26.01;98665.88;5060834;28;20107;-77
2022/09/22 01:37:29;;;;;;;8.85;5.72;;;;;;;27.47;25.19;98655.66;5063082;28;20487;-77
2022/09/22 01:40:10;;;;;;;10.55;7.00;;;;;;;27.35;25.29;98657.94;5065669;28;20497;-77
2022/09/22 01:42:44;;;;;;;9.70;6.32;;;;;;;26.98;26.00;98671.78;5063642;28;20074;-78
2022/09/22 01:45:18;;;;;;;14.00;9.00;;;;;;;27.10;25.71;98663.41;5065829;28;20084;-78
2022/09/22 01:47:52;;;;;;;11.02;7.30;;;;;;;27.14;25.88;98664.09;5067418;28;20064;-78
2022/09/22 01:50:24;;;;;;;8.30;5.20;;;;;;;27.47;25.28;98659.25;5068080;28;20068;-78
2022/09/22 01:52:54;;;;;;;9.38;7.22;;;;;;;27.78;24.95;98657.59;5070982;28;20498;-78
2022/09/22 01:55:28;;;;;;;10.27;6.80;;;;;;;27.31;25.66;98656.44;5068203;28;20021;-78
2022/09/22 01:58:17;;;;;;;9.38;6.80;;;;;;;27.07;25.96;98658.66;5071314;28;20021;-78
2022/09/22 02:00:55;;;;;;;9.68;7.15;;;;;;;27.12;25.72;98660.16;5070496;28;20518;-78
2022/09/22 02:03:43;;;;;;;12.80;8.32;;;;;;;27.16;25.42;98658.03;5070223;28;20024;-78
2022/09/22 02:06:14;;;;;;;13.18;8.52;;;;;;;26.09;27.30;98658.88;5071599;28;20029;-78
2022/09/22 02:08:48;;;;;;;19.85;13.68;;;;;;;25.88;27.56;98653.69;5075669;28;20432;-77
2022/09/22 02:11:15;;;;;;;14.48;9.23;;;;;;;26.01;27.27;98651.78;5068456;28;20029;-77
2022/09/22 02:13:43;;;;;;;15.23;9.82;;;;;;;26.41;26.74;98653.38;5069460;28;20390;-78
2022/09/22 02:16:12;;;;;;;14.55;10.27;;;;;;;26.66;26.53;98658.41;5073485;28;20028;-77
2022/09/22 02:18:54;;;;;;;14.77;10.02;;;;;;;26.47;27.01;98654.41;5067813;28;20083;-78
2022/09/22 02:21:23;;;;;;;15.60;9.63;;;;;;;26.68;26.46;98656.75;5074105;28;20039;-77
2022/09/22 02:23:49;;;;;;;18.13;10.98;;;;;;;26.39;26.86;98653.00;5074476;28;20432;-77
2022/09/22 02:26:22;;;;;;;17.70;10.27;;;;;;;26.52;26.74;98650.28;5068702;28;20028;-77
2022/09/22 02:28:51;;;;;;;12.95;9.32;;;;;;;26.78;26.54;98652.13;5073063;28;20489;-77
2022/09/22 02:31:18;;;;;;;11.07;9.13;;;;;;;26.82;26.28;98655.66;5072872;28;20052;-77
2022/09/22 02:33:44;;;;;;;15.43;9.45;;;;;;;26.96;25.98;98651.69;5071640;28;20063;-77
2022/09/22 02:36:29;;;;;;;12.68;8.52;;;;;;;26.63;26.36;98646.00;5068809;28;20044;-77
2022/09/22 02:39:31;;;;;;;11.45;7.65;;;;;;;26.71;26.21;98643.81;5056273;28;20032;-77
2022/09/22 02:42:14;;;;;;;13.32;8.32;;;;;;;26.67;26.37;98645.94;5056448;28;20159;-77
2022/09/22 02:45:04;;;;;;;14.77;8.80;;;;;;;26.62;26.45;98643.63;5063040;28;20032;-77
2022/09/22 02:47:47;;;;;;;14.75;7.78;;;;;;;26.71;26.23;98647.44;5066218;28;20443;-77
2022/09/22 02:50:16;;;;;;;9.60;7.28;;;;;;;26.99;25.79;98645.19;5073159;28;20402;-77
2022/09/22 02:52:44;;;;;;;10.80;7.72;;;;;;;27.20;25.48;98639.81;5073188;28;20056;-77
2022/09/22 02:55:12;;;;;;;9.18;6.40;;;;;;;27.53;25.30;98639.78;5057903;28;20040;-77
2022/09/22 02:57:38;;;;;;;8.55;6.22;;;;;;;27.65;25.37;98637.03;5074473;28;20394;-77
2022/09/22 03:00:05;;;;;;;7.70;5.57;;;;;;;27.82;24.69;98638.53;5069826;28;20028;-77
2022/09/22 03:02:31;;;;;;;8.40;6.75;;;;;;;28.13;24.22;98649.38;5063666;28;20032;-77
2022/09/22 03:04:57;;;;;;;8.88;6.40;;;;;;;28.42;24.03;98653.75;5067193;28;20033;-77
2022/09/22 03:07:23;;;;;;;7.03;5.53;;;;;;;28.65;23.77;98647.81;5069916;28;20542;-77
2022/09/22 03:09:49;;;;;;;7.85;5.88;;;;;;;28.14;24.05;98651.78;5055238;28;20382;-77
2022/09/22 03:12:15;;;;;;;8.65;5.82;;;;;;;28.38;23.85;98655.88;5085144;28;20482;-77
2022/09/22 03:14:42;;;;;;;6.72;5.60;;;;;;;28.65;23.58;98649.84;5054263;28;20551;-77
2022/09/22 03:17:08;;;;;;;9.18;5.70;;;;;;;28.74;23.38;98656.41;5061650;28;20167;-77
2022/09/22 03:19:34;;;;;;;10.25;5.82;;;;;;;28.94;23.04;98649.72;5065791;28;20028;-77
2022/09/22 03:22:01;;;;;;;8.02;5.22;;;;;;;29.16;22.92;98647.75;5068397;28;20551;-77
2022/09/22 03:24:27;;;;;;;8.13;5.75;;;;;;;29.27;22.93;98648.22;5066814;28;20494;-77
2022/09/22 03:26:53;;;;;;;6.30;4.45;;;;;;;29.37;22.69;98647.88;5071962;28;20056;-77
2022/09/22 03:29:19;;;;;;;8.55;5.90;;;;;;;29.37;22.71;98652.72;5061618;28;20036;-77
2022/09/22 03:31:45;;;;;;;6.93;5.38;;;;;;;29.47;22.77;98654.41;5063337;28;20115;-77
2022/09/22 03:34:11;;;;;;;7.40;5.07;;;;;;;29.57;22.41;98647.56;5064606;28;20034;-77
2022/09/22 03:36:37;;;;;;;8.10;4.97;;;;;;;29.71;22.61;98643.44;5072566;28;20079;-78
2022/09/22 03:39:03;;;;;;;7.72;5.78;;;;;;;29.63;22.34;98644.94;5064588;28;20439;-77
2022/09/22 03:41:30;;;;;;;6.82;5.15;;;;;;;29.70;22.42;98641.84;5060215;28;20059;-77
2022/09/22 03:43:56;;;;;;;6.25;4.75;;;;;;;29.75;22.37;98650.56;5070055;28;20044;-77
2022/09/22 03:46:22;;;;;;;5.72;4.82;;;;;;;29.79;22.02;98656.13;5062588;28;20036;-77
2022/09/22 03:48:48;;;;;;;7.88;5.97;;;;;;;28.71;23.17;98662.94;5071408;28;20036;-77
2022/09/22 03:51:14;;;;;;;7.82;5.07;;;;;;;28.18;23.87;98657.31;5073035;28;20506;-77
2022/09/22 03:53:40;;;;;;;8.10;6.03;;;;;;;28.01;24.08;98656.56;5072327;28;20033;-77
2022/09/22 03:56:12;;;;;;;11.38;6.82;;;;;;;27.58;24.83;98650.53;5069898;28;20068;-77
2022/09/22 03:58:39;;;;;;;7.32;5.18;;;;;;;27.84;24.12;98652.22;5069927;28;20025;-77
2022/09/22 04:01:06;;;;;;;9.73;7.32;;;;;;;28.16;23.83;98654.94;5068891;28;20041;-77
2022/09/22 04:03:33;;;;;;;7.60;5.95;;;;;;;27.83;24.42;98651.41;5065334;28;20398;-77
2022/09/22 04:05:59;;;;;;;9.63;6.38;;;;;;;27.59;24.66;98652.91;5060664;28;20120;-77
2022/09/22 04:08:26;;;;;;;10.07;7.22;;;;;;;27.79;24.55;98653.56;5068394;28;20543;-77
2022/09/22 04:10:52;;;;;;;9.18;6.32;;;;;;;28.09;24.15;98652.31;5071239;28;20111;-77
2022/09/22 04:13:18;;;;;;;9.02;5.75;;;;;;;27.95;24.19;98647.84;5065444;28;20481;-77
2022/09/22 04:15:45;;;;;;;10.60;7.10;;;;;;;27.56;24.80;98656.63;5065608;28;20048;-76
2022/09/22 04:18:13;;;;;;;10.32;6.90;;;;;;;26.64;26.14;98647.59;5066433;28;20405;-77
2022/09/22 04:20:42;;;;;;;11.18;7.30;;;;;;;26.72;25.71;98648.22;5065476;28;20037;-78
2022/09/22 04:23:12;;;;;;;17.20;9.57;;;;;;;26.39;26.13;98644.56;5072488;28;20039;-77
2022/09/22 04:25:38;;;;;;;11.90;8.38;;;;;;;26.92;25.83;98648.16;5062295;28;20032;-77
2022/09/22 04:28:06;;;;;;;9.32;7.32;;;;;;;27.39;25.01;98652.22;5064524;28;20025;-77
2022/09/22 04:30:33;;;;;;;11.02;7.72;;;;;;;26.99;25.58;98650.81;5065092;28;20029;-78
2022/09/22 04:32:59;;;;;;;8.98;6.43;;;;;;;26.78;25.76;98646.50;5062987;28;20028;-78
2022/09/22 04:35:27;;;;;;;9.32;7.15;;;;;;;27.53;24.97;98646.22;5056013;28;20040;-78
2022/09/22 04:37:54;;;;;;;10.10;6.70;;;;;;;27.27;24.81;98650.91;5060486;28;20119;-77
2022/09/22 04:40:22;;;;;;;9.95;6.60;;;;;;;26.81;25.55;98650.47;5061795;28;20050;-78
2022/09/22 04:42:48;;;;;;;9.10;6.35;;;;;;;27.34;25.04;98647.09;5061743;28;20028;-77
2022/09/22 04:45:15;;;;;;;9.65;6.38;;;;;;;27.03;25.17;98649.50;5060554;28;20430;-78
2022/09/22 04:47:44;;;;;;;11.65;7.50;;;;;;;27.32;25.00;98653.19;5063798;28;20064;-78
2022/09/22 04:50:11;;;;;;;11.05;7.05;;;;;;;27.06;25.55;98661.91;5065440;28;20116;-78
2022/09/22 04:52:37;;;;;;;11.13;7.35;;;;;;;27.45;24.94;98663.75;5065620;28;20474;-79
2022/09/22 04:55:03;;;;;;;11.43;8.00;;;;;;;27.47;24.94;98656.44;5061193;28;20032;-78
2022/09/22 04:57:30;;;;;;;10.55;7.13;;;;;;;27.44;24.90;98657.34;5071294;28;20036;-78
2022/09/22 04:59:56;;;;;;;9.52;5.95;;;;;;;26.96;25.70;98665.78;5072059;28;20036;-78
2022/09/22 05:02:22;;;;;;;14.27;8.88;;;;;;;26.91;25.43;98657.88;5071506;28;20040;-78
2022/09/22 05:04:48;;;;;;;13.43;8.07;;;;;;;26.78;25.66;98659.78;5072369;28;20037;-78
2022/09/22 05:07:14;;;;;;;11.88;7.35;;;;;;;27.31;25.27;98662.06;5070587;28;20162;-78
2022/09/22 05:09:40;;;;;;;12.20;7.10;;;;;;;27.73;24.69;98658.16;5070846;28;20056;-78
2022/09/22 05:12:06;;;;;;;9.65;6.20;;;;;;;26.88;25.73;98662.38;5072008;28;20032;-78
2022/09/22 05:14:33;;;;;;;12.57;7.10;;;;;;;27.36;25.28;98658.72;5072577;28;20033;-78
2022/09/22 05:16:59;;;;;;;10.55;7.18;;;;;;;27.14;25.14;98661.28;5071421;28;20037;-78
2022/09/22 05:19:26;;;;;;;11.57;7.22;;;;;;;27.31;25.08;98654.41;5072521;28;20094;-78
2022/09/22 05:21:53;;;;;;;13.90;6.40;;;;;;;27.08;25.73;98668.69;5071243;28;20402;-78
2022/09/22 05:24:19;;;;;;;10.82;6.63;;;;;;;26.78;25.99;98666.22;5072600;28;20367;-78
2022/09/22 05:26:45;;;;;;;11.50;6.50;;;;;;;26.51;26.13;98665.63;5068475;28;20486;-78
2022/09/22 05:29:11;;;;;;;13.07;7.07;;;;;;;26.58;26.10;98669.03;5057017;28;20475;-78
2022/09/22 05:31:37;;;;;;;11.85;6.97;;;;;;;26.17;26.71;98665.94;5064117;28;20039;-78
2022/09/22 05:34:03;;;;;;;16.77;10.60;;;;;;;26.17;26.48;98665.94;5062239;28;20037;-78
2022/09/22 05:36:29;;;;;;;19.08;11.13;;;;;;;25.91;26.99;98670.47;5076174;28;20048;-78
2022/09/22 05:38:55;;;;;;;13.10;7.93;;;;;;;26.60;26.42;98665.81;5076280;28;20536;-78
2022/09/22 05:41:21;;;;;;;13.25;8.25;;;;;;;26.42;26.31;98671.81;5075945;28;20070;-78
2022/09/22 05:43:47;;;;;;;13.18;7.32;;;;;;;26.22;26.81;98668.25;5072068;28;20024;-78
2022/09/22 05:46:13;;;;;;;17.88;9.15;;;;;;;25.71;27.56;98674.50;5073797;28;20055;-78
2022/09/22 05:48:39;;;;;;;15.52;9.35;;;;;;;26.41;26.84;98678.72;5076310;28;20036;-78
2022/09/22 05:51:05;;;;;;;14.68;9.02;;;;;;;26.77;25.91;98675.88;5075656;28;20044;-77
2022/09/22 05:53:31;;;;;;;13.40;7.22;;;;;;;26.47;26.32;98676.16;5075908;28;20056;-78
2022/09/22 05:55:58;;;;;;;21.92;11.20;;;;;;;25.86;27.11;98678.59;5074181;28;20489;-78
2022/09/22 05:58:24;;;;;;;19.65;9.65;;;;;;;26.09;26.70;98670.13;5065659;28;20363;-77
2022/09/22 06:00:51;;;;;;;20.15;10.90;;;;;;;25.78;27.50;98685.63;5067422;28;20498;-78
2022/09/22 06:03:18;;;;;;;13.00;6.95;;;;;;;25.47;28.25;98678.56;5056262;28;20084;-78
2022/09/22 06:05:44;;;;;;;16.15;9.52;;;;;;;25.54;27.69;98681.25;5056428;28;20021;-78
2022/09/22 06:08:10;;;;;;;14.65;8.68;;;;;;;26.01;27.03;98688.38;5058608;28;20035;-78
2022/09/22 06:10:37;;;;;;;16.70;8.18;;;;;;;25.82;27.46;98686.34;5070674;28;20033;-78
2022/09/22 06:13:06;;;;;;;15.05;8.73;;;;;;;26.90;26.07;98690.09;5063874;28;20510;-78
2022/09/22 06:15:34;;;;;;;18.73;9.80;;;;;;;26.67;26.03;98691.00;5065882;28;20103;-78
2022/09/22 06:18:08;;;;;;;12.48;7.32;;;;;;;26.85;26.15;98690.63;5074759;28;20033;-78
2022/09/22 06:20:35;;;;;;;12.55;6.63;;;;;;;26.65;26.28;98690.66;5075435;28;20399;-78
2022/09/22 06:23:01;;;;;;;18.55;10.45;;;;;;;26.47;26.50;98684.59;5074148;28;20028;-78
2022/09/22 06:25:27;;;;;;;14.73;7.70;;;;;;;26.53;26.96;98692.13;5074694;28;20033;-78
2022/09/22 06:28:04;;;;;;;12.00;6.95;;;;;;;27.13;26.44;98696.38;5074997;28;20059;-78
2022/09/22 06:30:33;;;;;;;11.32;6.90;;;;;;;27.34;25.77;98692.22;5070441;28;20068;-78
2022/09/22 06:32:59;;;;;;;10.05;6.20;;;;;;;27.40;25.63;98685.63;5069040;28;20512;-78
2022/09/22 06:35:31;;;;;;;10.15;6.07;;;;;;;27.52;25.51;98688.97;5074375;28;20021;-78
2022/09/22 06:37:57;;;;;;;13.45;8.20;;;;;;;27.09;25.43;98690.03;5074970;28;20032;-78
2022/09/22 06:40:24;;;;;;;12.30;7.50;;;;;;;26.55;26.46;98700.94;5075274;28;20432;-78
2022/09/22 06:42:56;;;;;;;10.75;6.30;;;;;;;26.68;26.28;98701.81;5075075;28;20056;-78
2022/09/22 06:45:24;;;;;;;8.38;4.93;;;;;;;26.52;26.87;98706.63;5073406;28;20350;-78
2022/09/22 06:47:51;;;;;;;10.55;6.28;;;;;;;25.58;28.42;98704.50;5074917;28;20110;-78
2022/09/22 06:50:17;;;;;;;11.55;6.45;;;;;;;25.41;28.50;98709.16;5073506;28;20045;-77
2022/09/22 06:52:43;;;;;;;9.80;6.40;;;;;;;26.42;27.27;98702.81;5060227;28;20065;-78
2022/09/22 06:55:11;;;;;;;8.95;6.22;;;;;;;26.87;25.99;98710.69;5059795;28;20028;-78
2022/09/22 06:57:37;;;;;;;9.77;6.30;;;;;;;26.86;25.93;98709.13;5072689;28;20115;-78
2022/09/22 07:00:04;;;;;;;8.20;5.75;;;;;;;26.98;25.84;98705.63;5073972;28;20060;-78
2022/09/22 07:02:30;;;;;;;9.80;5.57;;;;;;;26.91;25.83;98711.41;5073807;28;20058;-77
2022/09/22 07:04:59;;;;;;;13.07;5.88;;;;;;;26.93;25.42;98725.88;5074667;28;20474;-78
2022/09/22 07:07:29;;;;;;;7.97;4.32;;;;;;;27.32;25.24;98714.44;5061139;28;20048;-78
2022/09/22 07:09:56;;;;;;;5.78;4.22;;;;;;;27.24;25.63;98716.63;5055731;28;20067;-77
2022/09/22 07:12:22;;;;;;;5.97;3.85;;;;;;;27.19;25.87;98716.38;5054324;28;20036;-78
2022/09/22 07:14:48;;;;;;;5.60;4.00;;;;;;;27.41;25.32;98725.91;5067853;28;20037;-78
2022/09/22 07:17:19;;;;;;;5.85;4.32;;;;;;;27.66;24.53;98708.31;5074291;28;20059;-78
2022/09/22 07:19:49;;;;;;;6.93;4.57;;;;;;;27.71;24.65;98714.25;5056269;28;20129;-77
2022/09/22 07:22:17;;;;;;;;;;;;;;;27.62;23.77;98716.09;5054944;28;20441;-77
2022/09/22 07:24:44;;;;;;;5.03;3.50;;;;;;;26.14;27.13;98723.09;5073221;28;19916;-78
2022/09/22 07:27:19;;;;;;;6.72;4.20;;;;;;;26.85;25.79;98732.88;5055804;28;20064;-78
2022/09/22 07:29:47;;;;;;;8.70;4.03;;;;;;;27.40;25.12;98729.94;5054341;28;20392;-77
2022/09/22 07:32:13;;;;;;;4.60;3.55;;;;;;;28.21;24.74;98719.34;5053892;28;20033;-78
2022/09/22 07:34:39;;;;;;;5.28;3.75;;;;;;;28.47;23.74;98720.19;5057472;28;20029;-78
2022/09/22 07:37:06;;;;;;;9.50;4.82;;;;;;;27.82;24.06;98728.06;5073472;28;20042;-78
2022/09/22 07:39:31;;;;;;;5.63;4.10;;;;;;;27.27;25.00;98723.41;5073557;28;20042;-78
2022/09/22 07:41:58;;;;;;;6.65;4.18;;;;;;;27.73;24.55;98720.22;5073162;28;20036;-78
2022/09/22 07:47:08;;;;;;;6.53;4.38;;;;;;;27.69;24.48;98721.56;5053399;28;20122;-78
2022/09/22 07:49:34;;;;;;;5.95;3.88;;;;;;;27.42;24.65;98719.81;5061453;28;20029;-78
2022/09/22 07:52:00;;;;;;;5.88;3.97;;;;;;;27.71;24.86;98714.25;5073442;28;20052;-78
2022/09/22 07:54:27;;;;;;;4.10;3.50;;;;;;;27.89;24.37;98716.59;5073546;28;20028;-78
2022/09/22 07:56:57;;;;;;;4.07;2.97;;;;;;;28.46;24.21;98727.09;5073009;28;20544;-78
2022/09/22 07:59:23;;;;;;;6.17;4.10;;;;;;;27.69;25.00;98728.00;5069944;28;20021;-78
2022/09/22 08:01:50;;;;;;;6.88;4.38;;;;;;;27.39;24.55;98729.19;5053490;28;20036;-78
2022/09/22 08:04:25;;;;;;;6.10;3.70;;;;;;;26.99;25.60;98724.09;5069051;28;20032;-78
2022/09/22 08:06:54;;;;;;;4.82;3.50;;;;;;;27.81;24.80;98726.47;5059253;28;20032;-77
2022/09/22 08:09:21;;;;;;;5.78;3.75;;;;;;;28.24;24.01;98726.91;5069017;28;20025;-78
2022/09/22 08:11:47;;;;;;;5.53;3.72;;;;;;;28.39;23.70;98730.13;5070654;28;20432;-78
2022/09/22 08:14:16;;;;;;;5.18;3.47;;;;;;;28.60;24.86;98729.50;5068720;28;20040;-78
2022/09/22 08:16:44;;;;;;;5.15;4.20;;;;;;;28.81;24.44;98728.06;5072896;28;20032;-78
2022/09/22 08:19:12;;;;;;;8.60;4.43;;;;;;;28.13;24.07;98734.09;5073453;28;20078;-78
2022/09/22 08:21:40;;;;;;;6.95;4.35;;;;;;;28.20;24.18;98734.69;5072993;28;20032;-78
2022/09/22 08:24:08;;;;;;;6.50;3.92;;;;;;;28.60;23.71;98735.97;5073167;28;20044;-77
2022/09/22 08:26:39;;;;;;;5.15;3.17;;;;;;;27.85;24.33;98732.81;5072132;28;20437;-78
2022/09/22 08:29:06;;;;;;;10.23;4.07;;;;;;;27.69;24.95;98730.81;5073249;28;20035;-78
2022/09/22 08:31:34;;;;;;;6.43;3.40;;;;;;;28.35;24.14;98726.59;5072591;28;20074;-78
2022/09/22 08:34:00;;;;;;;4.82;3.88;;;;;;;28.42;23.41;98726.41;5064661;28;20033;-78
2022/09/22 08:36:27;;;;;;;2.88;2.58;;;;;;;28.05;25.18;98723.00;5053044;28;20060;-78
2022/09/22 08:38:54;;;;;;;4.63;3.30;;;;;;;28.35;23.92;98721.75;5053103;28;20062;-78
2022/09/22 08:41:26;;;;;;;5.40;2.97;;;;;;;27.55;26.38;98730.38;5053423;28;20040;-78
2022/09/22 08:44:07;;;;;;;3.88;3.45;;;;;;;28.06;25.46;98726.63;5072833;28;20064;-78
2022/09/22 08:46:34;;;;;;;;;;;;;;;27.49;24.22;98724.50;5073566;28;20043;-78
2022/09/22 08:52:37;;;;;;;3.85;2.38;;;;;;;28.45;25.08;98726.28;5054151;28;20068;-78
2022/09/22 08:55:06;;;;;;;4.47;3.03;;;;;;;28.61;23.35;98725.47;5052562;28;20037;-78
2022/09/22 08:57:48;;;;;;;3.28;2.50;;;;;;;27.67;26.10;98718.41;5065874;28;20035;-78
2022/09/22 09:00:18;;;;;;;2.92;2.42;;;;;;;28.26;25.03;98721.63;5075789;28;20041;-78
2022/09/22 09:03:10;;;;;;;2.88;2.55;;;;;;;27.98;24.62;98720.34;5061782;28;20028;-78
2022/09/22 09:05:49;;;;;;;3.17;2.42;;;;;;;28.68;23.97;98716.78;5076009;28;20058;-78
2022/09/22 09:08:38;;;;;;;3.55;2.42;;;;;;;28.44;26.23;98726.75;5065888;28;20037;-78
2022/09/22 09:11:26;;;;;;;4.10;2.50;;;;;;;28.83;24.34;98720.72;5060428;28;20039;-78
2022/09/22 09:14:09;;;;;;;3.97;2.67;;;;;;;28.30;23.99;98716.66;5074666;28;20049;-78
2022/09/22 09:17:13;;;;;;;4.35;2.35;;;;;;;28.98;24.66;98715.41;5076839;28;20036;-78
2022/09/22 09:20:16;;;;;;;4.47;2.78;;;;;;;28.77;24.49;98710.44;5075930;28;20074;-78
2022/09/22 09:22:54;;;;;;;3.85;2.90;;;;;;;28.03;24.40;98711.34;5067862;28;20039;-78
2022/09/22 09:25:48;;;;;;;5.63;3.63;;;;;;;27.33;25.03;98711.16;5064773;28;20068;-78
2022/09/22 09:28:34;;;;;;;3.70;3.00;;;;;;;27.33;26.29;98711.16;5053763;28;20441;-78
2022/09/22 09:31:17;;;;;;;4.85;2.92;;;;;;;27.63;25.42;98709.25;5056191;28;20387;-78
2022/09/22 09:33:52;;;;;;;3.75;2.88;;;;;;;28.39;25.09;98701.88;5056281;28;20163;-78
2022/09/22 09:36:22;;;;;;;3.63;2.65;;;;;;;28.76;23.12;98709.63;5071294;28;20508;-78
2022/09/22 09:38:56;;;;;;;2.60;2.37;;;;;;;28.41;24.88;98705.03;5075681;28;20025;-78
2022/09/22 09:41:31;;;;;;;3.38;2.30;;;;;;;28.98;24.60;98706.94;5072791;28;20375;-78
2022/09/22 09:44:00;;;;;;;2.78;2.20;;;;;;;29.13;23.62;98710.88;5055835;28;20487;-77
2022/09/22 09:46:45;;;;;;;3.50;2.25;;;;;;;30.31;23.73;98700.72;5056172;28;20029;-78
2022/09/22 09:49:14;;;;;;;3.63;2.40;;;;;;;30.44;22.60;98702.25;5055980;28;20029;-78
2022/09/22 09:51:44;;;;;;;1.85;1.70;;;;;;;29.72;22.96;98710.13;5072301;28;20517;-78
2022/09/22 09:54:15;;;;;;;3.13;2.08;;;;;;;30.47;22.31;98707.00;5055818;28;20052;-78
2022/09/22 09:57:03;;;;;;;2.22;1.52;;;;;;;29.85;23.23;98706.03;5067480;28;20032;-78
2022/09/22 10:02:18;;;;;;;2.25;1.95;;;;;;;29.41;24.57;98702.28;5055819;28;20567;-78
2022/09/22 10:04:51;;;;;;;2.15;1.67;;;;;;;29.64;22.32;98709.56;5075997;28;20032;-78
2022/09/22 10:07:22;;;;;;;1.63;1.52;;;;;;;29.76;22.61;98703.13;5073419;28;20025;-78
2022/09/22 10:09:49;;;;;;;1.38;1.27;;;;;;;30.88;22.68;98699.34;5075554;28;20107;-78
2022/09/22 10:12:24;;;;;;;1.75;1.58;;;;;;;31.46;22.35;98697.38;5073553;28;20405;-78
2022/09/22 10:14:53;;;;;;;1.50;1.40;;;;;;;30.13;24.33;98698.53;5055375;28;20570;-78
2022/09/22 10:17:38;;;;;;;1.48;1.38;;;;;;;30.48;22.26;98694.41;5075300;28;20032;-78
2022/09/22 10:20:27;;;;;;;1.52;1.33;;;;;;;31.49;21.67;98689.97;5075578;28;20040;-78
2022/09/22 10:22:55;;;;;;;1.45;1.27;;;;;;;30.67;22.35;98698.13;5074399;28;20052;-78
2022/09/22 10:25:23;;;;;;;1.20;1.10;;;;;;;30.75;21.62;98694.56;5073524;28;20028;-78
2022/09/22 10:28:08;;;;;;;1.00;0.90;;;;;;;30.78;21.39;98690.78;5075647;28;20032;-78
2022/09/22 10:30:36;;;;;;;0.90;0.90;;;;;;;31.62;21.40;98685.75;5074389;28;20039;-78
2022/09/22 10:33:05;;;;;;;1.23;1.13;;;;;;;30.98;24.20;98692.47;5073644;28;20033;-78
2022/09/22 10:35:34;;;;;;;2.65;1.15;;;;;;;30.26;21.32;98690.78;5074813;28;20028;-78
2022/09/22 10:38:16;;;;;;;1.27;1.10;;;;;;;29.06;26.52;98697.75;5075629;28;20092;-78
2022/09/22 10:41:06;;;;;;;1.25;1.13;;;;;;;29.35;23.24;98700.47;5075268;28;20115;-78
2022/09/22 10:43:53;;;;;;;1.63;1.20;;;;;;;29.27;23.37;98699.13;5075126;28;20094;-78
2022/09/22 10:46:58;;;;;;;1.42;1.27;;;;;;;29.48;23.28;98698.41;5074654;28;20063;-78
2022/09/22 10:50:05;;;;;;;1.10;1.00;;;;;;;29.66;23.88;98690.13;5071335;28;20039;-78
2022/09/22 10:52:44;;;;;;;1.15;1.00;;;;;;;29.93;22.70;98689.56;5054871;28;20037;-78
2022/09/22 10:55:19;;;;;;;1.50;1.35;;;;;;;29.85;24.23;98685.44;5054653;28;20482;-78
2022/09/22 10:57:51;;;;;;;1.73;1.27;;;;;;;30.30;23.41;98682.13;5054712;28;20025;-78
2022/09/22 11:00:22;;;;;;;1.80;1.20;;;;;;;30.52;22.38;98677.28;5058144;28;20048;-78
2022/09/22 11:02:56;;;;;;;2.13;1.40;;;;;;;30.52;23.34;98680.09;5074392;28;20089;-78
2022/09/22 11:12:15;;;;;;;1.00;0.93;;;;;;;30.55;21.79;98668.63;5054493;28;20048;-78
2022/09/22 11:15:06;;;;;;;1.17;0.88;;;;;;;29.99;22.19;98670.75;5054404;28;20444;-78
2022/09/22 11:17:44;;;;;;;3.30;1.02;;;;;;;30.00;23.14;98670.28;5073638;28;20040;-78
2022/09/22 11:20:35;;;;;;;1.50;1.00;;;;;;;29.91;21.85;98660.94;5074064;28;20063;-78
2022/09/22 11:23:39;;;;;;;1.13;1.00;;;;;;;30.58;23.37;98661.22;5048379;28;20045;-78
2022/09/22 11:26:08;;;;;;;1.40;1.10;;;;;;;29.59;21.59;98667.72;5052884;28;20112;-78
2022/09/22 11:28:54;;;;;;;1.30;1.20;;;;;;;28.18;26.12;98679.91;5054099;28;20478;-78
2022/09/22 11:31:50;;;;;;;1.38;1.00;;;;;;;27.04;26.61;98681.31;5065696;28;20040;-78
2022/09/22 11:34:48;;;;;;;1.73;1.10;;;;;;;26.07;29.08;98681.78;5073813;28;20040;-78
2022/09/22 11:37:31;;;;;;;1.30;1.20;;;;;;;25.81;27.59;98685.53;5056711;28;20039;-78
2022/09/22 11:40:35;;;;;;;1.45;1.17;;;;;;;26.37;27.99;98694.88;5054634;28;20150;-78
2022/09/22 11:43:41;;;;;;;1.50;1.30;;;;;;;26.15;29.01;98693.75;5053998;28;20040;-78
2022/09/22 11:46:26;;;;;;;2.88;1.48;;;;;;;27.23;27.09;98694.53;5064717;28;20032;-78
2022/09/22 11:49:22;;;;;;;1.70;1.00;;;;;;;26.91;25.91;98681.19;5073362;28;20036;-78
2022/09/22 11:52:09;;;;;;;1.75;0.80;;;;;;;27.63;25.04;98684.66;5072385;28;20521;-78
2022/09/22 11:55:06;;;;;;;0.75;0.75;;;;;;;27.99;25.15;98685.25;5073697;28;20463;-78
2022/09/22 11:57:38;;;;;;;1.15;0.80;;;;;;;28.10;24.32;98684.94;5064476;28;20031;-78
2022/09/22 12:00:17;;;;;;;2.30;0.70;;;;;;;28.69;23.94;98682.38;5058796;28;20036;-78
2022/09/22 12:02:59;;;;;;;0.60;0.60;;;;;;;28.42;24.81;98678.38;5072840;28;20040;-78
2022/09/22 12:05:47;;;;;;;0.70;0.70;;;;;;;28.68;23.76;98685.69;5073489;28;20490;-78
2022/09/22 12:08:16;;;;;;;1.67;0.90;;;;;;;29.19;23.09;98681.63;5073405;28;20043;-78
2022/09/22 12:10:46;;;;;;;1.42;0.80;;;;;;;29.08;24.81;98683.97;5068614;28;20032;-78
2022/09/22 12:13:20;;;;;;;1.15;1.05;;;;;;;29.66;24.36;98670.31;5073157;28;20363;-78